sensor_id;sensor_type;location;lat;lon;timestamp;P1;durP1;ratioP1;P2;durP2;ratioP2
16115;SDS011;8162;47.104;15.432;2023-03-30T00:00:01;10.37;;;5.50;;
16115;SDS011;8162;47.104;15.432;2023-03-30T00:03:13;13.27;;;6.20;;
16115;SDS011;8162;47.104;15.432;2023-03-30T00:06:18;8.20;;;5.90;;
16115;SDS011;8162;47.104;15.432;2023-03-30T00:09:21;8.10;;;5.80;;
16115;SDS011;8162;47.104;15.432;2023-03-30T00:12:23;7.17;;;5.07;;
16115;SDS011;8162;47.104;15.432;2023-03-30T00:15:24;8.53;;;5.47;;
16115;SDS011;8162;47.104;15.432;2023-03-30T00:18:25;6.10;;;5.50;;
16115;SDS011;8162;47.104;15.432;2023-03-30T00:21:28;8.87;;;5.30;;
16115;SDS011;8162;47.104;15.432;2023-03-30T00:24:29;9.83;;;5.80;;
16115;SDS011;8162;47.104;15.432;2023-03-30T00:27:30;8.67;;;5.83;;
16115;SDS011;8162;47.104;15.432;2023-03-30T00:30:31;6.33;;;5.13;;
16115;SDS011;8162;47.104;15.432;2023-03-30T00:33:32;6.33;;;5.40;;
16115;SDS011;8162;47.104;15.432;2023-03-30T00:36:34;6.23;;;5.57;;
16115;SDS011;8162;47.104;15.432;2023-03-30T00:39:36;6.90;;;5.53;;
16115;SDS011;8162;47.104;15.432;2023-03-30T00:42:37;9.23;;;5.17;;
16115;SDS011;8162;47.104;15.432;2023-03-30T00:45:38;7.90;;;5.30;;
16115;SDS011;8162;47.104;15.432;2023-03-30T00:48:39;5.73;;;4.30;;
16115;SDS011;8162;47.104;15.432;2023-03-30T00:51:41;6.47;;;4.60;;
16115;SDS011;8162;47.104;15.432;2023-03-30T00:54:42;6.47;;;4.90;;
16115;SDS011;8162;47.104;15.432;2023-03-30T00:57:43;7.47;;;4.77;;
16115;SDS011;8162;47.104;15.432;2023-03-30T01:00:44;7.33;;;5.53;;
16115;SDS011;8162;47.104;15.432;2023-03-30T01:03:46;7.43;;;4.90;;
16115;SDS011;8162;47.104;15.432;2023-03-30T01:06:48;5.87;;;4.30;;
16115;SDS011;8162;47.104;15.432;2023-03-30T01:09:51;6.33;;;5.10;;
16115;SDS011;8162;47.104;15.432;2023-03-30T01:12:52;7.37;;;5.30;;
16115;SDS011;8162;47.104;15.432;2023-03-30T01:16:02;7.30;;;4.73;;
16115;SDS011;8162;47.104;15.432;2023-03-30T01:28:51;8.20;;;5.43;;
16115;SDS011;8162;47.104;15.432;2023-03-30T01:56:39;7.10;;;4.60;;
16115;SDS011;8162;47.104;15.432;2023-03-30T02:00:03;7.63;;;5.10;;
16115;SDS011;8162;47.104;15.432;2023-03-30T02:03:13;7.93;;;4.87;;
16115;SDS011;8162;47.104;15.432;2023-03-30T02:06:17;5.70;;;5.10;;
16115;SDS011;8162;47.104;15.432;2023-03-30T02:09:19;5.77;;;4.40;;
16115;SDS011;8162;47.104;15.432;2023-03-30T02:12:25;6.13;;;4.50;;
16115;SDS011;8162;47.104;15.432;2023-03-30T02:15:31;4.73;;;4.23;;
16115;SDS011;8162;47.104;15.432;2023-03-30T02:18:34;5.63;;;4.80;;
16115;SDS011;8162;47.104;15.432;2023-03-30T02:21:37;5.17;;;4.67;;
16115;SDS011;8162;47.104;15.432;2023-03-30T02:24:39;10.33;;;5.23;;
16115;SDS011;8162;47.104;15.432;2023-03-30T02:27:40;6.50;;;5.07;;
16115;SDS011;8162;47.104;15.432;2023-03-30T02:30:42;5.63;;;3.93;;
16115;SDS011;8162;47.104;15.432;2023-03-30T02:59:19;5.07;;;3.97;;
16115;SDS011;8162;47.104;15.432;2023-03-30T03:02:22;4.97;;;3.63;;
16115;SDS011;8162;47.104;15.432;2023-03-30T03:05:27;5.77;;;4.03;;
16115;SDS011;8162;47.104;15.432;2023-03-30T03:08:33;8.20;;;5.00;;
16115;SDS011;8162;47.104;15.432;2023-03-30T03:11:34;5.50;;;4.03;;
16115;SDS011;8162;47.104;15.432;2023-03-30T03:14:35;6.43;;;4.63;;
16115;SDS011;8162;47.104;15.432;2023-03-30T03:17:37;4.93;;;4.03;;
16115;SDS011;8162;47.104;15.432;2023-03-30T03:20:39;6.00;;;4.37;;
16115;SDS011;8162;47.104;15.432;2023-03-30T03:23:40;5.40;;;4.30;;
16115;SDS011;8162;47.104;15.432;2023-03-30T03:26:42;5.07;;;3.90;;
16115;SDS011;8162;47.104;15.432;2023-03-30T03:29:43;4.93;;;4.00;;
16115;SDS011;8162;47.104;15.432;2023-03-30T03:32:44;4.70;;;3.80;;
16115;SDS011;8162;47.104;15.432;2023-03-30T03:35:45;6.83;;;4.90;;
16115;SDS011;8162;47.104;15.432;2023-03-30T03:38:46;7.20;;;4.33;;
16115;SDS011;8162;47.104;15.432;2023-03-30T03:41:48;6.53;;;4.27;;
16115;SDS011;8162;47.104;15.432;2023-03-30T03:44:49;6.70;;;4.70;;
16115;SDS011;8162;47.104;15.432;2023-03-30T03:47:50;7.17;;;4.83;;
16115;SDS011;8162;47.104;15.432;2023-03-30T03:50:52;5.60;;;3.90;;
16115;SDS011;8162;47.104;15.432;2023-03-30T03:53:53;4.90;;;3.90;;
16115;SDS011;8162;47.104;15.432;2023-03-30T03:56:54;6.17;;;4.83;;
16115;SDS011;8162;47.104;15.432;2023-03-30T03:59:55;7.37;;;4.60;;
16115;SDS011;8162;47.104;15.432;2023-03-30T04:02:58;5.93;;;4.73;;
16115;SDS011;8162;47.104;15.432;2023-03-30T04:06:00;11.23;;;5.23;;
16115;SDS011;8162;47.104;15.432;2023-03-30T04:09:01;7.90;;;5.73;;
16115;SDS011;8162;47.104;15.432;2023-03-30T04:12:02;7.37;;;5.47;;
16115;SDS011;8162;47.104;15.432;2023-03-30T04:15:04;8.53;;;5.33;;
16115;SDS011;8162;47.104;15.432;2023-03-30T04:18:05;7.70;;;5.13;;
16115;SDS011;8162;47.104;15.432;2023-03-30T04:21:07;6.17;;;4.73;;
16115;SDS011;8162;47.104;15.432;2023-03-30T04:24:12;6.80;;;4.57;;
16115;SDS011;8162;47.104;15.432;2023-03-30T04:27:13;5.63;;;4.53;;
16115;SDS011;8162;47.104;15.432;2023-03-30T04:30:16;6.97;;;4.53;;
16115;SDS011;8162;47.104;15.432;2023-03-30T04:33:17;6.53;;;4.60;;
16115;SDS011;8162;47.104;15.432;2023-03-30T04:36:18;6.77;;;4.53;;
16115;SDS011;8162;47.104;15.432;2023-03-30T04:39:20;6.47;;;4.23;;
16115;SDS011;8162;47.104;15.432;2023-03-30T04:42:21;7.17;;;4.20;;
16115;SDS011;8162;47.104;15.432;2023-03-30T04:45:29;7.30;;;4.17;;
16115;SDS011;8162;47.104;15.432;2023-03-30T04:48:30;6.90;;;4.40;;
16115;SDS011;8162;47.104;15.432;2023-03-30T04:51:31;5.60;;;4.40;;
16115;SDS011;8162;47.104;15.432;2023-03-30T04:54:33;5.87;;;4.20;;
16115;SDS011;8162;47.104;15.432;2023-03-30T04:57:34;7.67;;;4.47;;
16115;SDS011;8162;47.104;15.432;2023-03-30T05:00:35;5.50;;;4.50;;
16115;SDS011;8162;47.104;15.432;2023-03-30T05:03:36;5.30;;;4.23;;
16115;SDS011;8162;47.104;15.432;2023-03-30T05:06:37;6.43;;;4.10;;
16115;SDS011;8162;47.104;15.432;2023-03-30T05:09:38;6.70;;;4.83;;
16115;SDS011;8162;47.104;15.432;2023-03-30T05:12:39;5.97;;;4.17;;
16115;SDS011;8162;47.104;15.432;2023-03-30T05:15:40;5.80;;;4.53;;
16115;SDS011;8162;47.104;15.432;2023-03-30T05:18:41;6.20;;;3.97;;
16115;SDS011;8162;47.104;15.432;2023-03-30T05:21:43;5.20;;;4.13;;
16115;SDS011;8162;47.104;15.432;2023-03-30T05:24:44;7.70;;;4.93;;
16115;SDS011;8162;47.104;15.432;2023-03-30T05:27:45;7.27;;;4.83;;
16115;SDS011;8162;47.104;15.432;2023-03-30T05:30:51;6.20;;;4.40;;
16115;SDS011;8162;47.104;15.432;2023-03-30T05:33:52;7.90;;;4.27;;
16115;SDS011;8162;47.104;15.432;2023-03-30T05:36:53;4.63;;;4.13;;
16115;SDS011;8162;47.104;15.432;2023-03-30T05:39:54;7.50;;;4.40;;
16115;SDS011;8162;47.104;15.432;2023-03-30T05:42:55;5.40;;;3.30;;
16115;SDS011;8162;47.104;15.432;2023-03-30T05:45:57;4.93;;;4.43;;
16115;SDS011;8162;47.104;15.432;2023-03-30T05:48:58;5.73;;;3.83;;
16115;SDS011;8162;47.104;15.432;2023-03-30T05:51:59;8.10;;;4.33;;
16115;SDS011;8162;47.104;15.432;2023-03-30T05:55:00;5.67;;;3.63;;
16115;SDS011;8162;47.104;15.432;2023-03-30T05:58:01;6.47;;;4.30;;
16115;SDS011;8162;47.104;15.432;2023-03-30T06:01:03;8.53;;;4.00;;
16115;SDS011;8162;47.104;15.432;2023-03-30T06:04:04;6.37;;;3.90;;
16115;SDS011;8162;47.104;15.432;2023-03-30T06:07:06;8.10;;;4.80;;
16115;SDS011;8162;47.104;15.432;2023-03-30T06:10:08;7.90;;;4.50;;
16115;SDS011;8162;47.104;15.432;2023-03-30T06:13:09;7.67;;;5.07;;
16115;SDS011;8162;47.104;15.432;2023-03-30T06:16:10;12.33;;;6.23;;
16115;SDS011;8162;47.104;15.432;2023-03-30T06:19:11;11.57;;;7.10;;
16115;SDS011;8162;47.104;15.432;2023-03-30T06:22:13;11.70;;;6.47;;
16115;SDS011;8162;47.104;15.432;2023-03-30T06:25:14;16.80;;;6.63;;
16115;SDS011;8162;47.104;15.432;2023-03-30T06:28:15;13.50;;;6.00;;
16115;SDS011;8162;47.104;15.432;2023-03-30T06:31:16;11.07;;;6.73;;
16115;SDS011;8162;47.104;15.432;2023-03-30T06:34:17;7.80;;;5.37;;
16115;SDS011;8162;47.104;15.432;2023-03-30T06:37:18;7.80;;;5.50;;
16115;SDS011;8162;47.104;15.432;2023-03-30T06:40:20;11.07;;;5.13;;
16115;SDS011;8162;47.104;15.432;2023-03-30T06:43:24;8.67;;;5.53;;
16115;SDS011;8162;47.104;15.432;2023-03-30T06:46:25;4.73;;;4.23;;
16115;SDS011;8162;47.104;15.432;2023-03-30T06:49:26;9.70;;;5.20;;
16115;SDS011;8162;47.104;15.432;2023-03-30T06:52:27;14.50;;;6.30;;
16115;SDS011;8162;47.104;15.432;2023-03-30T06:55:27;12.17;;;5.43;;
16115;SDS011;8162;47.104;15.432;2023-03-30T06:58:28;13.23;;;7.87;;
16115;SDS011;8162;47.104;15.432;2023-03-30T07:01:30;10.47;;;6.73;;
16115;SDS011;8162;47.104;15.432;2023-03-30T07:04:31;20.17;;;8.40;;
16115;SDS011;8162;47.104;15.432;2023-03-30T07:07:32;15.17;;;8.17;;
16115;SDS011;8162;47.104;15.432;2023-03-30T07:10:33;11.93;;;7.27;;
16115;SDS011;8162;47.104;15.432;2023-03-30T07:13:34;10.20;;;6.73;;
16115;SDS011;8162;47.104;15.432;2023-03-30T07:16:35;12.73;;;6.60;;
16115;SDS011;8162;47.104;15.432;2023-03-30T07:19:37;16.57;;;6.83;;
16115;SDS011;8162;47.104;15.432;2023-03-30T07:22:38;13.27;;;8.07;;
16115;SDS011;8162;47.104;15.432;2023-03-30T07:25:38;13.13;;;8.50;;
16115;SDS011;8162;47.104;15.432;2023-03-30T07:28:41;14.90;;;7.73;;
16115;SDS011;8162;47.104;15.432;2023-03-30T07:31:42;15.33;;;8.43;;
16115;SDS011;8162;47.104;15.432;2023-03-30T07:34:43;10.60;;;6.57;;
16115;SDS011;8162;47.104;15.432;2023-03-30T07:37:45;7.97;;;6.20;;
16115;SDS011;8162;47.104;15.432;2023-03-30T07:40:46;12.83;;;7.43;;
16115;SDS011;8162;47.104;15.432;2023-03-30T07:43:47;15.37;;;7.20;;
16115;SDS011;8162;47.104;15.432;2023-03-30T07:46:47;9.17;;;6.23;;
16115;SDS011;8162;47.104;15.432;2023-03-30T07:49:48;10.97;;;6.87;;
16115;SDS011;8162;47.104;15.432;2023-03-30T07:52:49;8.97;;;5.93;;
16115;SDS011;8162;47.104;15.432;2023-03-30T07:55:50;11.03;;;6.50;;
16115;SDS011;8162;47.104;15.432;2023-03-30T07:58:52;12.67;;;6.13;;
16115;SDS011;8162;47.104;15.432;2023-03-30T08:01:52;9.50;;;5.70;;
16115;SDS011;8162;47.104;15.432;2023-03-30T08:04:53;6.60;;;4.73;;
16115;SDS011;8162;47.104;15.432;2023-03-30T08:07:54;7.77;;;5.30;;
16115;SDS011;8162;47.104;15.432;2023-03-30T08:10:55;6.20;;;4.87;;
16115;SDS011;8162;47.104;15.432;2023-03-30T08:13:55;8.80;;;5.87;;
16115;SDS011;8162;47.104;15.432;2023-03-30T08:16:56;9.07;;;6.00;;
16115;SDS011;8162;47.104;15.432;2023-03-30T08:19:57;12.00;;;6.17;;
16115;SDS011;8162;47.104;15.432;2023-03-30T08:22:57;10.07;;;6.20;;
16115;SDS011;8162;47.104;15.432;2023-03-30T08:25:59;9.30;;;5.73;;
16115;SDS011;8162;47.104;15.432;2023-03-30T08:29:00;7.50;;;4.97;;
16115;SDS011;8162;47.104;15.432;2023-03-30T08:32:01;8.13;;;4.40;;
16115;SDS011;8162;47.104;15.432;2023-03-30T08:35:01;9.97;;;5.93;;
16115;SDS011;8162;47.104;15.432;2023-03-30T08:38:02;10.20;;;5.67;;
16115;SDS011;8162;47.104;15.432;2023-03-30T08:44:53;7.60;;;5.30;;
16115;SDS011;8162;47.104;15.432;2023-03-30T08:47:56;9.47;;;5.67;;
16115;SDS011;8162;47.104;15.432;2023-03-30T08:50:57;9.77;;;5.90;;
16115;SDS011;8162;47.104;15.432;2023-03-30T08:54:01;7.50;;;5.57;;
16115;SDS011;8162;47.104;15.432;2023-03-30T08:57:14;10.13;;;5.90;;
16115;SDS011;8162;47.104;15.432;2023-03-30T09:00:38;7.60;;;5.27;;
16115;SDS011;8162;47.104;15.432;2023-03-30T09:03:59;7.80;;;6.03;;
16115;SDS011;8162;47.104;15.432;2023-03-30T09:07:10;12.77;;;6.30;;
16115;SDS011;8162;47.104;15.432;2023-03-30T09:10:19;9.50;;;5.53;;
16115;SDS011;8162;47.104;15.432;2023-03-30T09:13:22;8.30;;;5.40;;
16115;SDS011;8162;47.104;15.432;2023-03-30T09:16:37;9.93;;;5.60;;
16115;SDS011;8162;47.104;15.432;2023-03-30T09:19:52;10.13;;;5.90;;
16115;SDS011;8162;47.104;15.432;2023-03-30T09:23:07;12.37;;;5.60;;
16115;SDS011;8162;47.104;15.432;2023-03-30T09:26:17;8.63;;;4.87;;
16115;SDS011;8162;47.104;15.432;2023-03-30T09:29:29;9.27;;;5.00;;
16115;SDS011;8162;47.104;15.432;2023-03-30T09:32:40;8.07;;;4.57;;
16115;SDS011;8162;47.104;15.432;2023-03-30T09:39:34;6.43;;;4.80;;
16115;SDS011;8162;47.104;15.432;2023-03-30T09:42:37;14.47;;;5.00;;
16115;SDS011;8162;47.104;15.432;2023-03-30T09:45:54;7.90;;;5.60;;
16115;SDS011;8162;47.104;15.432;2023-03-30T09:49:10;11.50;;;5.57;;
16115;SDS011;8162;47.104;15.432;2023-03-30T09:52:20;7.93;;;5.03;;
16115;SDS011;8162;47.104;15.432;2023-03-30T09:55:24;7.67;;;5.27;;
16115;SDS011;8162;47.104;15.432;2023-03-30T09:58:34;9.17;;;5.27;;
16115;SDS011;8162;47.104;15.432;2023-03-30T10:01:35;6.57;;;4.70;;
16115;SDS011;8162;47.104;15.432;2023-03-30T10:08:03;8.83;;;4.57;;
16115;SDS011;8162;47.104;15.432;2023-03-30T10:11:20;7.73;;;5.50;;
16115;SDS011;8162;47.104;15.432;2023-03-30T10:14:31;10.23;;;5.37;;
16115;SDS011;8162;47.104;15.432;2023-03-30T10:17:34;11.70;;;6.00;;
16115;SDS011;8162;47.104;15.432;2023-03-30T10:20:40;11.20;;;7.00;;
16115;SDS011;8162;47.104;15.432;2023-03-30T10:23:42;14.93;;;6.57;;
16115;SDS011;8162;47.104;15.432;2023-03-30T10:30:11;8.70;;;6.50;;
16115;SDS011;8162;47.104;15.432;2023-03-30T10:33:16;12.13;;;6.80;;
16115;SDS011;8162;47.104;15.432;2023-03-30T10:36:17;12.27;;;6.63;;
16115;SDS011;8162;47.104;15.432;2023-03-30T10:39:27;12.83;;;6.43;;
16115;SDS011;8162;47.104;15.432;2023-03-30T10:42:30;12.50;;;6.80;;
16115;SDS011;8162;47.104;15.432;2023-03-30T10:45:36;9.87;;;6.77;;
16115;SDS011;8162;47.104;15.432;2023-03-30T11:06:19;10.37;;;6.37;;
16115;SDS011;8162;47.104;15.432;2023-03-30T11:09:25;8.20;;;5.47;;
16115;SDS011;8162;47.104;15.432;2023-03-30T11:12:37;8.07;;;6.10;;
16115;SDS011;8162;47.104;15.432;2023-03-30T11:15:45;12.83;;;7.30;;
16115;SDS011;8162;47.104;15.432;2023-03-30T11:18:58;10.57;;;6.57;;
16115;SDS011;8162;47.104;15.432;2023-03-30T11:22:27;13.37;;;7.00;;
16115;SDS011;8162;47.104;15.432;2023-03-30T11:35:48;9.13;;;6.07;;
16115;SDS011;8162;47.104;15.432;2023-03-30T11:38:56;9.83;;;5.97;;
16115;SDS011;8162;47.104;15.432;2023-03-30T11:42:05;9.47;;;5.70;;
16115;SDS011;8162;47.104;15.432;2023-03-30T11:52:06;8.87;;;6.50;;
16115;SDS011;8162;47.104;15.432;2023-03-30T11:55:18;11.40;;;5.90;;
16115;SDS011;8162;47.104;15.432;2023-03-30T11:58:35;7.80;;;5.80;;
16115;SDS011;8162;47.104;15.432;2023-03-30T12:01:52;5.87;;;4.90;;
16115;SDS011;8162;47.104;15.432;2023-03-30T12:05:07;7.50;;;5.17;;
16115;SDS011;8162;47.104;15.432;2023-03-30T12:14:54;8.00;;;5.37;;
16115;SDS011;8162;47.104;15.432;2023-03-30T12:24:50;7.70;;;5.07;;
16115;SDS011;8162;47.104;15.432;2023-03-30T12:28:09;7.80;;;5.40;;
16115;SDS011;8162;47.104;15.432;2023-03-30T12:31:12;6.07;;;4.27;;
16115;SDS011;8162;47.104;15.432;2023-03-30T12:34:13;8.57;;;4.90;;
16115;SDS011;8162;47.104;15.432;2023-03-30T12:40:22;7.00;;;5.50;;
16115;SDS011;8162;47.104;15.432;2023-03-30T12:51:24;7.07;;;4.53;;
16115;SDS011;8162;47.104;15.432;2023-03-30T12:54:21;6.67;;;4.23;;
16115;SDS011;8162;47.104;15.432;2023-03-30T13:04:20;6.17;;;3.47;;
16115;SDS011;8162;47.104;15.432;2023-03-30T13:07:26;8.90;;;4.70;;
16115;SDS011;8162;47.104;15.432;2023-03-30T13:10:36;5.57;;;4.97;;
16115;SDS011;8162;47.104;15.432;2023-03-30T13:13:44;8.20;;;4.77;;
16115;SDS011;8162;47.104;15.432;2023-03-30T13:20:18;4.43;;;3.97;;
16115;SDS011;8162;47.104;15.432;2023-03-30T13:26:21;11.23;;;5.60;;
16115;SDS011;8162;47.104;15.432;2023-03-30T13:29:24;8.17;;;5.47;;
16115;SDS011;8162;47.104;15.432;2023-03-30T13:39:10;9.43;;;5.00;;
16115;SDS011;8162;47.104;15.432;2023-03-30T13:51:52;12.27;;;5.80;;
16115;SDS011;8162;47.104;15.432;2023-03-30T13:54:59;12.40;;;5.50;;
16115;SDS011;8162;47.104;15.432;2023-03-30T13:58:03;7.70;;;4.80;;
16115;SDS011;8162;47.104;15.432;2023-03-30T14:01:08;11.90;;;5.33;;
16115;SDS011;8162;47.104;15.432;2023-03-30T14:04:13;11.67;;;4.77;;
16115;SDS011;8162;47.104;15.432;2023-03-30T14:07:15;11.30;;;5.10;;
16115;SDS011;8162;47.104;15.432;2023-03-30T14:10:17;9.87;;;5.20;;
16115;SDS011;8162;47.104;15.432;2023-03-30T14:13:20;13.40;;;6.03;;
16115;SDS011;8162;47.104;15.432;2023-03-30T14:16:25;7.33;;;4.93;;
16115;SDS011;8162;47.104;15.432;2023-03-30T14:19:32;11.67;;;5.13;;
16115;SDS011;8162;47.104;15.432;2023-03-30T14:22:36;8.40;;;4.67;;
16115;SDS011;8162;47.104;15.432;2023-03-30T14:25:40;9.17;;;4.73;;
16115;SDS011;8162;47.104;15.432;2023-03-30T14:28:40;6.20;;;4.17;;
16115;SDS011;8162;47.104;15.432;2023-03-30T14:31:42;6.60;;;4.17;;
16115;SDS011;8162;47.104;15.432;2023-03-30T14:34:47;7.90;;;3.97;;
16115;SDS011;8162;47.104;15.432;2023-03-30T14:37:48;5.30;;;3.83;;
16115;SDS011;8162;47.104;15.432;2023-03-30T14:40:50;5.93;;;3.97;;
16115;SDS011;8162;47.104;15.432;2023-03-30T14:43:54;6.93;;;3.73;;
16115;SDS011;8162;47.104;15.432;2023-03-30T14:46:55;8.97;;;4.20;;
16115;SDS011;8162;47.104;15.432;2023-03-30T14:49:57;3.90;;;3.40;;
16115;SDS011;8162;47.104;15.432;2023-03-30T14:52:59;7.13;;;4.27;;
16115;SDS011;8162;47.104;15.432;2023-03-30T14:56:00;6.83;;;3.97;;
16115;SDS011;8162;47.104;15.432;2023-03-30T14:59:02;5.97;;;3.90;;
16115;SDS011;8162;47.104;15.432;2023-03-30T15:02:03;6.10;;;3.83;;
16115;SDS011;8162;47.104;15.432;2023-03-30T15:05:05;8.90;;;4.30;;
16115;SDS011;8162;47.104;15.432;2023-03-30T15:08:12;8.17;;;4.17;;
16115;SDS011;8162;47.104;15.432;2023-03-30T15:11:20;8.90;;;4.47;;
16115;SDS011;8162;47.104;15.432;2023-03-30T15:14:22;6.03;;;4.53;;
16115;SDS011;8162;47.104;15.432;2023-03-30T15:17:24;10.03;;;4.60;;
16115;SDS011;8162;47.104;15.432;2023-03-30T15:20:26;7.93;;;5.17;;
16115;SDS011;8162;47.104;15.432;2023-03-30T15:23:30;7.37;;;4.73;;
16115;SDS011;8162;47.104;15.432;2023-03-30T15:26:35;9.97;;;5.00;;
16115;SDS011;8162;47.104;15.432;2023-03-30T15:29:40;7.20;;;4.60;;
16115;SDS011;8162;47.104;15.432;2023-03-30T15:32:42;5.80;;;3.83;;
16115;SDS011;8162;47.104;15.432;2023-03-30T15:35:42;7.43;;;4.43;;
16115;SDS011;8162;47.104;15.432;2023-03-30T15:38:51;8.47;;;5.00;;
16115;SDS011;8162;47.104;15.432;2023-03-30T15:45:08;5.93;;;4.20;;
16115;SDS011;8162;47.104;15.432;2023-03-30T15:48:11;6.63;;;4.30;;
16115;SDS011;8162;47.104;15.432;2023-03-30T15:51:20;7.00;;;4.30;;
16115;SDS011;8162;47.104;15.432;2023-03-30T15:54:23;5.93;;;3.50;;
16115;SDS011;8162;47.104;15.432;2023-03-30T15:57:29;6.43;;;4.57;;
16115;SDS011;8162;47.104;15.432;2023-03-30T16:00:30;6.30;;;4.00;;
16115;SDS011;8162;47.104;15.432;2023-03-30T16:03:37;7.00;;;4.00;;
16115;SDS011;8162;47.104;15.432;2023-03-30T16:06:39;4.50;;;3.40;;
16115;SDS011;8162;47.104;15.432;2023-03-30T16:09:41;5.40;;;3.60;;
16115;SDS011;8162;47.104;15.432;2023-03-30T16:12:42;5.80;;;3.90;;
16115;SDS011;8162;47.104;15.432;2023-03-30T16:15:44;7.77;;;3.90;;
16115;SDS011;8162;47.104;15.432;2023-03-30T16:18:45;9.50;;;4.73;;
16115;SDS011;8162;47.104;15.432;2023-03-30T16:21:46;5.40;;;3.90;;
16115;SDS011;8162;47.104;15.432;2023-03-30T16:24:47;6.97;;;3.77;;
16115;SDS011;8162;47.104;15.432;2023-03-30T16:27:50;10.33;;;5.10;;
16115;SDS011;8162;47.104;15.432;2023-03-30T16:30:51;8.13;;;5.07;;
16115;SDS011;8162;47.104;15.432;2023-03-30T16:33:53;8.70;;;4.50;;
16115;SDS011;8162;47.104;15.432;2023-03-30T16:36:54;8.40;;;4.93;;
16115;SDS011;8162;47.104;15.432;2023-03-30T16:39:55;12.70;;;4.93;;
16115;SDS011;8162;47.104;15.432;2023-03-30T16:42:57;10.07;;;5.60;;
16115;SDS011;8162;47.104;15.432;2023-03-30T16:45:58;6.60;;;4.73;;
16115;SDS011;8162;47.104;15.432;2023-03-30T16:48:59;8.47;;;5.20;;
16115;SDS011;8162;47.104;15.432;2023-03-30T16:52:00;10.37;;;5.40;;
16115;SDS011;8162;47.104;15.432;2023-03-30T16:55:01;5.57;;;4.80;;
16115;SDS011;8162;47.104;15.432;2023-03-30T16:58:03;7.83;;;5.20;;
16115;SDS011;8162;47.104;15.432;2023-03-30T17:01:07;6.23;;;4.63;;
16115;SDS011;8162;47.104;15.432;2023-03-30T17:04:11;7.63;;;5.10;;
16115;SDS011;8162;47.104;15.432;2023-03-30T17:07:13;11.97;;;5.50;;
16115;SDS011;8162;47.104;15.432;2023-03-30T17:10:15;7.33;;;4.90;;
16115;SDS011;8162;47.104;15.432;2023-03-30T17:13:16;7.00;;;4.60;;
16115;SDS011;8162;47.104;15.432;2023-03-30T17:16:17;9.90;;;4.00;;
16115;SDS011;8162;47.104;15.432;2023-03-30T17:19:18;6.37;;;3.13;;
16115;SDS011;8162;47.104;15.432;2023-03-30T17:22:19;7.77;;;4.47;;
16115;SDS011;8162;47.104;15.432;2023-03-30T17:25:20;7.00;;;3.60;;
16115;SDS011;8162;47.104;15.432;2023-03-30T17:28:26;6.97;;;3.40;;
16115;SDS011;8162;47.104;15.432;2023-03-30T17:31:29;8.00;;;4.00;;
16115;SDS011;8162;47.104;15.432;2023-03-30T17:34:30;5.33;;;2.90;;
16115;SDS011;8162;47.104;15.432;2023-03-30T17:37:32;4.33;;;2.07;;
16115;SDS011;8162;47.104;15.432;2023-03-30T17:40:33;5.70;;;2.47;;
16115;SDS011;8162;47.104;15.432;2023-03-30T17:43:38;3.40;;;2.33;;
16115;SDS011;8162;47.104;15.432;2023-03-30T17:46:39;2.47;;;1.83;;
16115;SDS011;8162;47.104;15.432;2023-03-30T17:49:42;3.77;;;2.13;;
16115;SDS011;8162;47.104;15.432;2023-03-30T17:52:43;3.67;;;2.17;;
16115;SDS011;8162;47.104;15.432;2023-03-30T17:55:46;4.07;;;2.33;;
16115;SDS011;8162;47.104;15.432;2023-03-30T17:58:48;4.33;;;2.40;;
16115;SDS011;8162;47.104;15.432;2023-03-30T18:01:49;4.67;;;2.10;;
16115;SDS011;8162;47.104;15.432;2023-03-30T18:04:50;4.63;;;3.67;;
16115;SDS011;8162;47.104;15.432;2023-03-30T18:07:51;5.13;;;3.87;;
16115;SDS011;8162;47.104;15.432;2023-03-30T18:10:56;3.07;;;2.37;;
16115;SDS011;8162;47.104;15.432;2023-03-30T18:13:58;2.97;;;2.67;;
16115;SDS011;8162;47.104;15.432;2023-03-30T18:16:59;4.33;;;3.00;;
16115;SDS011;8162;47.104;15.432;2023-03-30T18:20:00;3.43;;;2.60;;
16115;SDS011;8162;47.104;15.432;2023-03-30T18:23:14;5.47;;;2.83;;
16115;SDS011;8162;47.104;15.432;2023-03-30T18:26:15;4.93;;;2.97;;
16115;SDS011;8162;47.104;15.432;2023-03-30T18:29:17;5.00;;;3.20;;
16115;SDS011;8162;47.104;15.432;2023-03-30T18:32:22;4.83;;;3.27;;
16115;SDS011;8162;47.104;15.432;2023-03-30T18:35:24;4.37;;;3.20;;
16115;SDS011;8162;47.104;15.432;2023-03-30T18:38:26;7.37;;;3.20;;
16115;SDS011;8162;47.104;15.432;2023-03-30T18:41:28;4.57;;;3.03;;
16115;SDS011;8162;47.104;15.432;2023-03-30T18:44:29;4.53;;;2.87;;
16115;SDS011;8162;47.104;15.432;2023-03-30T18:47:30;4.03;;;2.90;;
16115;SDS011;8162;47.104;15.432;2023-03-30T18:50:35;4.30;;;3.33;;
16115;SDS011;8162;47.104;15.432;2023-03-30T18:53:38;5.67;;;3.67;;
16115;SDS011;8162;47.104;15.432;2023-03-30T18:56:39;5.63;;;3.70;;
16115;SDS011;8162;47.104;15.432;2023-03-30T18:59:40;7.83;;;4.33;;
16115;SDS011;8162;47.104;15.432;2023-03-30T19:02:43;6.43;;;3.87;;
16115;SDS011;8162;47.104;15.432;2023-03-30T19:05:45;6.33;;;3.93;;
16115;SDS011;8162;47.104;15.432;2023-03-30T19:08:47;6.23;;;4.00;;
16115;SDS011;8162;47.104;15.432;2023-03-30T19:11:48;4.43;;;3.43;;
16115;SDS011;8162;47.104;15.432;2023-03-30T19:14:49;4.07;;;3.33;;
16115;SDS011;8162;47.104;15.432;2023-03-30T19:17:51;4.77;;;3.77;;
16115;SDS011;8162;47.104;15.432;2023-03-30T19:20:52;4.73;;;3.33;;
16115;SDS011;8162;47.104;15.432;2023-03-30T19:23:54;4.57;;;3.07;;
16115;SDS011;8162;47.104;15.432;2023-03-30T19:26:55;3.53;;;2.97;;
16115;SDS011;8162;47.104;15.432;2023-03-30T19:29:59;4.37;;;2.93;;
16115;SDS011;8162;47.104;15.432;2023-03-30T19:33:02;5.10;;;3.40;;
16115;SDS011;8162;47.104;15.432;2023-03-30T19:36:05;5.70;;;3.63;;
16115;SDS011;8162;47.104;15.432;2023-03-30T19:39:07;5.90;;;3.70;;
16115;SDS011;8162;47.104;15.432;2023-03-30T19:42:08;6.93;;;4.37;;
16115;SDS011;8162;47.104;15.432;2023-03-30T19:45:10;5.77;;;3.70;;
16115;SDS011;8162;47.104;15.432;2023-03-30T19:48:12;5.60;;;3.87;;
16115;SDS011;8162;47.104;15.432;2023-03-30T19:51:13;3.70;;;3.37;;
16115;SDS011;8162;47.104;15.432;2023-03-30T19:54:15;5.23;;;3.07;;
16115;SDS011;8162;47.104;15.432;2023-03-30T19:57:20;3.47;;;2.90;;
16115;SDS011;8162;47.104;15.432;2023-03-30T20:00:22;7.23;;;3.40;;
16115;SDS011;8162;47.104;15.432;2023-03-30T20:03:23;3.27;;;2.60;;
16115;SDS011;8162;47.104;15.432;2023-03-30T20:06:25;3.23;;;2.50;;
16115;SDS011;8162;47.104;15.432;2023-03-30T20:09:27;4.07;;;3.20;;
16115;SDS011;8162;47.104;15.432;2023-03-30T20:12:28;4.37;;;3.43;;
16115;SDS011;8162;47.104;15.432;2023-03-30T20:15:29;4.17;;;3.57;;
16115;SDS011;8162;47.104;15.432;2023-03-30T20:18:31;4.37;;;3.43;;
16115;SDS011;8162;47.104;15.432;2023-03-30T20:21:34;5.17;;;4.33;;
16115;SDS011;8162;47.104;15.432;2023-03-30T20:24:36;6.57;;;4.33;;
16115;SDS011;8162;47.104;15.432;2023-03-30T20:27:38;6.23;;;5.10;;
16115;SDS011;8162;47.104;15.432;2023-03-30T20:30:39;7.23;;;5.07;;
16115;SDS011;8162;47.104;15.432;2023-03-30T20:33:40;8.27;;;5.97;;
16115;SDS011;8162;47.104;15.432;2023-03-30T20:36:41;7.20;;;4.70;;
16115;SDS011;8162;47.104;15.432;2023-03-30T20:39:43;5.27;;;4.07;;
16115;SDS011;8162;47.104;15.432;2023-03-30T20:42:44;5.17;;;4.27;;
16115;SDS011;8162;47.104;15.432;2023-03-30T20:45:47;6.70;;;4.90;;
16115;SDS011;8162;47.104;15.432;2023-03-30T20:48:54;5.63;;;3.73;;
16115;SDS011;8162;47.104;15.432;2023-03-30T20:52:00;4.63;;;3.70;;
16115;SDS011;8162;47.104;15.432;2023-03-30T20:55:02;4.80;;;3.13;;
16115;SDS011;8162;47.104;15.432;2023-03-30T20:58:03;4.27;;;3.30;;
16115;SDS011;8162;47.104;15.432;2023-03-30T21:04:11;4.43;;;3.50;;
16115;SDS011;8162;47.104;15.432;2023-03-30T21:07:12;4.33;;;3.53;;
16115;SDS011;8162;47.104;15.432;2023-03-30T21:10:15;5.63;;;3.70;;